KTHA/THA METAR and TAF weather

Enter ICAO airport designator
Station Type Date Time Source
KTHA METAR 2022/09/26 08:35 UTC NOAA

KTHA 260835Z AUTO 00000KT 1/2SM FG VV005 10/10 A2995 RMK A01


Station Type Date Time Source
KTHA Decoded METAR 2022/09/26 08:35 UTC NOAA

Station name not available
Sep 26, 2022 - 04:35 AM EDT / 2022.09.26 0835 UTC
Wind: Calm:0
Visibility: 1/2 mile(s):0
Sky conditions: obscured
Weather: fog
Temperature: 50 F (10 C)
Dew Point: 50 F (10 C)
Relative Humidity: 100%
Pressure (altimeter): 29.95 in. Hg (1014 hPa)
ob: KTHA 260835Z AUTO 00000KT 1/2SM FG VV005 10/10 A2995 RMK A01
cycle: 8

Station Type Date Time Source
KTHA TAF UTC NOAA

Error!

Example: see airport list